createdAt,value
2023-04-22T00:00:49.157Z,9.43
2023-04-22T00:03:19.897Z,9.48
2023-04-22T00:05:49.272Z,9.52
2023-04-22T00:08:18.958Z,9.60
2023-04-22T00:10:48.475Z,9.51
2023-04-22T00:13:17.706Z,9.48
2023-04-22T00:15:50.461Z,9.50
2023-04-22T00:18:21.232Z,9.46
2023-04-22T00:20:51.055Z,9.56
2023-04-22T00:23:20.275Z,9.31
2023-04-22T00:25:49.707Z,9.50
2023-04-22T00:28:19.093Z,9.48
2023-04-22T00:30:48.727Z,9.16
2023-04-22T00:33:18.031Z,9.40
2023-04-22T00:35:48.774Z,9.30
2023-04-22T00:38:17.977Z,9.37
2023-04-22T00:40:47.108Z,9.39
2023-04-22T00:43:17.606Z,9.37
2023-04-22T00:45:47.711Z,9.33
2023-04-22T00:48:17.329Z,9.35
2023-04-22T00:50:48.170Z,9.39
2023-04-22T00:53:17.897Z,9.31
2023-04-22T00:55:48.005Z,9.34
2023-04-22T00:58:18.909Z,9.25
2023-04-22T01:00:48.143Z,9.24
2023-04-22T01:03:17.858Z,9.20
2023-04-22T01:05:49.846Z,9.18
2023-04-22T01:08:19.210Z,9.24
2023-04-22T01:10:48.573Z,9.17
2023-04-22T01:13:17.784Z,9.17
2023-04-22T01:15:47.235Z,9.18
2023-04-22T01:18:18.972Z,9.23
2023-04-22T01:20:50.074Z,9.13
2023-04-22T01:23:23.685Z,9.15
2023-04-22T01:25:53.505Z,9.27
2023-04-22T01:28:24.110Z,9.14
2023-04-22T01:31:03.678Z,9.19
2023-04-22T01:33:32.955Z,9.07
2023-04-22T01:36:02.329Z,9.10
2023-04-22T01:38:33.729Z,9.22
2023-04-22T01:41:10.197Z,9.40
2023-04-22T01:43:40.400Z,9.39
2023-04-22T01:46:10.551Z,9.48
2023-04-22T01:48:41.403Z,9.36
2023-04-22T01:51:13.126Z,9.58
2023-04-22T01:53:43.877Z,9.84
2023-04-22T01:56:13.059Z,9.98
2023-04-22T01:59:09.222Z,9.87
2023-04-22T02:01:40.732Z,9.87
2023-04-22T02:04:15.669Z,9.94
2023-04-22T02:06:44.902Z,9.97
2023-04-22T02:09:16.845Z,9.85
2023-04-22T02:11:46.568Z,10.01
2023-04-22T02:14:16.031Z,9.97
2023-04-22T02:16:45.238Z,10.08
2023-04-22T02:19:15.097Z,10.07
2023-04-22T02:21:44.357Z,10.21
2023-04-22T02:24:15.431Z,10.09
2023-04-22T02:26:44.559Z,9.97
2023-04-22T02:29:14.057Z,10.23
2023-04-22T02:31:45.622Z,10.12
2023-04-22T02:34:15.251Z,10.31
2023-04-22T02:36:44.648Z,10.05
2023-04-22T02:39:15.500Z,10.18
2023-04-22T02:41:45.124Z,10.20
2023-04-22T02:44:14.677Z,10.34
2023-04-22T02:46:46.823Z,10.32
2023-04-22T02:49:16.403Z,10.25
2023-04-22T02:51:45.834Z,10.21
2023-04-22T02:54:16.788Z,10.10
2023-04-22T02:56:46.420Z,10.04
2023-04-22T02:59:15.663Z,10.07
2023-04-22T03:01:44.947Z,10.10
2023-04-22T03:04:26.689Z,10.16
2023-04-22T03:06:56.200Z,10.06
2023-04-22T03:09:27.964Z,10.16
2023-04-22T03:11:57.665Z,10.20
2023-04-22T03:14:27.034Z,10.34
2023-04-22T03:16:57.208Z,10.48
2023-04-22T03:19:27.935Z,10.29
2023-04-22T03:21:59.513Z,10.50
2023-04-22T03:24:30.531Z,10.37
2023-04-22T03:27:00.733Z,10.31
2023-04-22T03:29:30.211Z,10.51
2023-04-22T03:31:59.599Z,10.28
2023-04-22T03:34:29.081Z,10.40
2023-04-22T03:36:58.360Z,10.62
2023-04-22T03:39:30.053Z,10.37
2023-04-22T03:41:59.365Z,10.51
2023-04-22T03:44:28.838Z,10.31
2023-04-22T03:46:58.343Z,10.50
2023-04-22T03:49:32.613Z,10.46
2023-04-22T03:52:01.824Z,10.65
2023-04-22T03:54:32.833Z,10.52
2023-04-22T03:57:02.972Z,10.29
2023-04-22T03:59:32.487Z,10.47
2023-04-22T04:02:01.881Z,10.34
2023-04-22T04:04:33.502Z,9.70
2023-04-22T04:07:03.792Z,9.94
2023-04-22T04:09:35.950Z,10.04
2023-04-22T04:12:05.356Z,9.91
2023-04-22T04:14:39.434Z,10.03
2023-04-22T04:17:10.095Z,9.86
2023-04-22T04:19:41.257Z,9.79
2023-04-22T04:22:11.286Z,9.84
2023-04-22T04:24:52.358Z,9.98
2023-04-22T04:27:25.168Z,9.82
2023-04-22T04:29:57.246Z,10.16
2023-04-22T04:32:40.768Z,10.03
2023-04-22T04:35:14.130Z,10.08
2023-04-22T04:37:47.152Z,10.02
2023-04-22T04:40:23.182Z,9.99
2023-04-22T04:43:08.573Z,10.14
2023-04-22T04:45:53.589Z,10.22
2023-04-22T04:48:30.105Z,10.09
2023-04-22T04:51:06.265Z,10.17
2023-04-22T04:53:39.002Z,10.10
2023-04-22T04:56:09.932Z,10.11
2023-04-22T04:58:39.603Z,10.14
2023-04-22T05:01:21.724Z,10.11
2023-04-22T05:03:52.469Z,10.22
2023-04-22T05:06:23.225Z,10.25
2023-04-22T05:08:57.852Z,10.32
2023-04-22T05:11:36.179Z,10.48
2023-04-22T05:14:12.577Z,10.57
2023-04-22T05:16:44.484Z,10.51
2023-04-22T05:19:13.691Z,10.69
2023-04-22T05:21:43.954Z,10.75
2023-04-22T05:24:14.758Z,10.75
2023-04-22T05:26:45.792Z,10.79
2023-04-22T05:29:20.897Z,10.95
2023-04-22T05:31:50.672Z,10.88
2023-04-22T05:34:20.433Z,10.96
2023-04-22T05:36:50.195Z,11.42
2023-04-22T05:39:20.376Z,11.54
2023-04-22T05:41:52.072Z,11.71
2023-04-22T05:44:21.677Z,11.73
2023-04-22T05:46:51.188Z,12.12
2023-04-22T05:49:22.690Z,12.06
2023-04-22T05:52:15.099Z,12.50
2023-04-22T05:55:20.551Z,12.49
2023-04-22T05:57:51.897Z,12.36
2023-04-22T06:00:35.646Z,12.57
2023-04-22T06:03:18.784Z,12.32
2023-04-22T06:05:48.768Z,12.64
2023-04-22T06:08:18.070Z,12.66
2023-04-22T06:10:47.694Z,12.65
2023-04-22T06:13:18.307Z,12.76
2023-04-22T06:15:47.766Z,12.86
2023-04-22T06:18:16.925Z,13.02
2023-04-22T06:20:47.598Z,13.12
2023-04-22T06:23:18.041Z,13.33
2023-04-22T06:25:47.462Z,13.33
2023-04-22T06:28:18.861Z,13.30
2023-04-22T06:30:50.212Z,13.44
2023-04-22T06:33:19.429Z,14.12
2023-04-22T06:35:48.736Z,13.47
2023-04-22T06:38:18.240Z,13.83
2023-04-22T06:41:07.799Z,14.05
2023-04-22T06:43:42.560Z,14.91
2023-04-22T06:46:14.082Z,14.32
2023-04-22T06:49:03.701Z,14.32
2023-04-22T06:51:36.987Z,14.53
2023-04-22T06:54:06.592Z,14.50
2023-04-22T06:56:36.155Z,14.63
2023-04-22T06:59:07.754Z,14.48
2023-04-22T07:01:37.892Z,15.01
2023-04-22T07:04:07.652Z,14.77
2023-04-22T07:06:37.462Z,14.77
2023-04-22T07:09:07.382Z,15.09
2023-04-22T07:11:39.381Z,15.59
2023-04-22T07:14:17.895Z,15.36
2023-04-22T07:16:47.751Z,15.27
2023-04-22T07:19:19.261Z,15.52
2023-04-22T07:21:48.514Z,15.95
2023-04-22T07:24:17.777Z,15.88
2023-04-22T07:26:47.202Z,16.49
2023-04-22T07:29:18.960Z,16.08
2023-04-22T07:31:48.288Z,16.12
2023-04-22T07:34:18.510Z,16.42
2023-04-22T07:36:47.961Z,16.34
2023-04-22T07:39:17.779Z,16.77
2023-04-22T07:41:46.982Z,16.75
2023-04-22T07:44:21.480Z,16.61
2023-04-22T07:46:55.864Z,16.63
2023-04-22T07:49:25.129Z,16.96
2023-04-22T07:51:54.493Z,16.37
2023-04-22T07:54:23.852Z,16.81
2023-04-22T07:56:53.204Z,16.89
2023-04-22T07:59:24.569Z,16.90
2023-04-22T08:01:55.993Z,16.75
2023-04-22T08:04:27.247Z,17.25
2023-04-22T08:06:57.488Z,17.25
2023-04-22T08:09:26.809Z,17.33
2023-04-22T08:11:56.573Z,17.46
2023-04-22T08:14:27.516Z,17.26
2023-04-22T08:16:58.057Z,17.69
2023-04-22T08:19:27.845Z,17.42
2023-04-22T08:21:58.077Z,17.51
2023-04-22T08:24:27.305Z,17.57
2023-04-22T08:26:56.678Z,17.12
2023-04-22T08:29:26.188Z,17.73
2023-04-22T08:31:55.410Z,17.66
2023-04-22T08:34:27.685Z,17.80
2023-04-22T08:36:56.853Z,17.41
2023-04-22T08:39:27.571Z,16.97
2023-04-22T08:41:58.179Z,17.01
2023-04-22T08:44:27.813Z,17.28
2023-04-22T08:46:59.962Z,17.67
2023-04-22T08:49:32.638Z,17.82
2023-04-22T08:52:01.879Z,17.83
2023-04-22T08:54:32.467Z,17.97
2023-04-22T08:57:03.546Z,18.08
2023-04-22T08:59:33.768Z,18.30
2023-04-22T09:02:05.814Z,18.03
2023-04-22T09:04:38.127Z,17.34
2023-04-22T09:07:08.900Z,17.34
2023-04-22T09:09:39.214Z,17.48
2023-04-22T09:12:10.038Z,17.71
2023-04-22T09:15:29.364Z,17.63
2023-04-22T09:17:59.026Z,17.41
2023-04-22T09:24:42.583Z,19.41
2023-04-22T09:27:13.567Z,18.42
2023-04-22T09:30:19.420Z,19.47
2023-04-22T09:32:56.197Z,19.05
2023-04-22T09:35:29.130Z,19.21
2023-04-22T09:37:59.331Z,19.21
2023-04-22T09:40:33.120Z,19.34
2023-04-22T09:43:04.023Z,19.56
2023-04-22T09:45:36.836Z,19.94
2023-04-22T09:53:27.213Z,19.35
2023-04-22T09:56:05.452Z,20.08
2023-04-22T09:58:39.786Z,19.88
2023-04-22T10:09:26.722Z,20.05
2023-04-22T10:11:59.126Z,19.93
2023-04-22T10:14:47.218Z,21.35
2023-04-22T10:17:18.274Z,21.12
2023-04-22T10:19:51.585Z,21.36
2023-04-22T10:22:20.808Z,20.50
2023-04-22T10:25:35.548Z,20.57
2023-04-22T10:32:28.342Z,20.80
2023-04-22T10:39:18.951Z,20.98
2023-04-22T10:41:54.200Z,21.08
2023-04-22T10:44:24.326Z,20.59
2023-04-22T10:47:02.036Z,20.75
2023-04-22T10:49:34.812Z,21.09
2023-04-22T10:52:06.306Z,21.57
2023-04-22T10:58:21.529Z,22.13
2023-04-22T11:00:59.335Z,21.06
2023-04-22T11:03:30.434Z,22.16
2023-04-22T11:06:18.284Z,21.96
2023-04-22T11:08:48.760Z,21.72
2023-04-22T11:11:20.415Z,22.20
2023-04-22T11:13:51.867Z,21.94
2023-04-22T11:16:25.367Z,21.84
2023-04-22T11:18:57.703Z,20.78
2023-04-22T11:21:28.840Z,21.40
2023-04-22T11:24:02.868Z,22.98
2023-04-22T11:26:37.563Z,22.18
2023-04-22T11:29:06.934Z,21.71
2023-04-22T11:31:48.566Z,23.01
2023-04-22T11:34:19.048Z,23.15
2023-04-22T11:36:49.802Z,22.15
2023-04-22T11:39:19.371Z,22.52
2023-04-22T11:41:48.529Z,22.44
2023-04-22T11:44:18.220Z,23.12
2023-04-22T11:46:47.428Z,23.11
2023-04-22T11:49:17.319Z,22.12
2023-04-22T11:52:10.203Z,21.97
2023-04-22T11:54:41.566Z,22.40
2023-04-22T11:57:15.390Z,23.11
2023-04-22T11:59:45.609Z,22.66
2023-04-22T12:02:19.661Z,22.68
2023-04-22T12:04:49.042Z,23.98
2023-04-22T12:07:20.020Z,23.79
2023-04-22T12:10:17.242Z,22.72
2023-04-22T12:12:46.797Z,22.76
2023-04-22T12:15:18.683Z,23.28
2023-04-22T12:17:50.837Z,23.92
2023-04-22T12:20:21.414Z,23.09
2023-04-22T12:23:23.519Z,23.04
2023-04-22T12:25:52.724Z,23.86
2023-04-22T12:28:22.225Z,23.21
2023-04-22T12:30:52.195Z,24.62
2023-04-22T12:33:21.796Z,24.04
2023-04-22T12:35:52.662Z,23.80
2023-04-22T12:38:23.722Z,23.94
2023-04-22T12:40:53.039Z,24.15
2023-04-22T12:43:29.931Z,23.68
2023-04-22T12:45:59.306Z,22.97
2023-04-22T12:48:32.776Z,23.33
2023-04-22T12:51:02.243Z,23.38
2023-04-22T12:53:32.999Z,23.86
2023-04-22T12:56:02.749Z,24.07
2023-04-22T12:58:37.031Z,23.75
2023-04-22T13:01:06.581Z,24.21
2023-04-22T13:03:36.387Z,23.54
2023-04-22T13:06:06.191Z,23.53
2023-04-22T13:08:36.914Z,23.66
2023-04-22T13:11:06.967Z,23.22
2023-04-22T13:13:40.060Z,23.96
2023-04-22T13:16:10.341Z,24.02
2023-04-22T13:18:39.923Z,23.55
2023-04-22T13:21:09.288Z,23.21
2023-04-22T13:23:40.100Z,23.12
2023-04-22T13:26:09.360Z,23.24
2023-04-22T13:28:38.698Z,22.73
2023-04-22T13:31:09.067Z,23.45
2023-04-22T13:33:39.179Z,23.47
2023-04-22T13:36:09.167Z,23.14
2023-04-22T13:38:39.839Z,23.83
2023-04-22T13:41:11.268Z,23.51
2023-04-22T13:43:40.588Z,24.08
2023-04-22T13:46:09.817Z,23.92
2023-04-22T13:48:44.372Z,24.35
2023-04-22T13:51:13.843Z,24.41
2023-04-22T13:53:44.574Z,24.21
2023-04-22T13:56:13.772Z,23.71
2023-04-22T13:58:43.489Z,24.07
2023-04-22T14:01:12.849Z,23.71
2023-04-22T14:03:43.215Z,23.75
2023-04-22T14:06:12.869Z,23.82
2023-04-22T14:08:43.708Z,24.00
2023-04-22T14:11:13.458Z,24.51
2023-04-22T14:13:42.677Z,23.88
2023-04-22T14:16:19.004Z,24.09
2023-04-22T14:18:49.904Z,24.49
2023-04-22T14:21:20.220Z,23.89
2023-04-22T14:23:51.214Z,24.02
2023-04-22T14:26:20.868Z,23.31
2023-04-22T14:28:50.066Z,23.45
2023-04-22T14:31:21.918Z,22.90
2023-04-22T14:33:51.271Z,22.77
2023-04-22T14:36:27.597Z,22.52
2023-04-22T14:38:58.650Z,22.49
2023-04-22T14:41:28.190Z,22.85
2023-04-22T14:43:59.867Z,22.73
2023-04-22T14:46:30.173Z,22.77
2023-04-22T14:49:05.478Z,23.24
2023-04-22T14:51:36.498Z,23.19
2023-04-22T14:54:08.599Z,23.65
2023-04-22T14:56:38.257Z,23.66
2023-04-22T14:59:07.572Z,23.52
2023-04-22T15:01:37.279Z,23.58
2023-04-22T15:04:08.113Z,23.25
2023-04-22T15:06:37.530Z,23.20
2023-04-22T15:09:08.444Z,23.26
2023-04-22T15:11:41.303Z,23.08
2023-04-22T15:14:10.492Z,23.03
2023-04-22T15:16:39.731Z,22.98
2023-04-22T15:19:09.269Z,23.06
2023-04-22T15:21:40.158Z,23.00
2023-04-22T15:24:11.146Z,22.96
2023-04-22T15:26:45.689Z,23.12
2023-04-22T15:29:16.427Z,22.92
2023-04-22T15:31:48.084Z,22.95
2023-04-22T15:34:17.804Z,22.82
2023-04-22T15:36:47.171Z,23.06
2023-04-22T15:39:24.922Z,22.97
2023-04-22T15:41:54.058Z,23.16
2023-04-22T15:44:23.603Z,24.02
2023-04-22T15:46:54.277Z,23.68
2023-04-22T15:49:26.190Z,23.59
2023-04-22T15:51:55.648Z,23.85
2023-04-22T15:54:26.246Z,23.61
2023-04-22T15:56:55.491Z,23.41
2023-04-22T15:59:24.809Z,23.30
2023-04-22T16:01:54.073Z,23.38
2023-04-22T16:04:26.004Z,23.17
2023-04-22T16:06:57.247Z,22.76
2023-04-22T16:09:28.964Z,22.85
2023-04-22T16:11:59.386Z,22.68
2023-04-22T16:14:28.583Z,22.47
2023-04-22T16:16:57.852Z,22.48
2023-04-22T16:19:27.312Z,22.35
2023-04-22T16:21:56.804Z,22.36
2023-04-22T16:24:25.938Z,22.38
2023-04-22T16:26:56.458Z,22.42
2023-04-22T16:29:25.920Z,22.54
2023-04-22T16:31:55.128Z,22.34
2023-04-22T16:34:24.448Z,22.30
2023-04-22T16:36:53.722Z,22.36
2023-04-22T16:39:29.068Z,22.28
2023-04-22T16:41:59.750Z,22.24
2023-04-22T16:44:28.973Z,22.15
2023-04-22T16:46:58.557Z,22.27
2023-04-22T16:49:28.825Z,22.35
2023-04-22T16:51:58.153Z,22.55
2023-04-22T16:54:30.295Z,22.25
2023-04-22T16:57:01.565Z,22.15
2023-04-22T16:59:30.820Z,22.07
2023-04-22T17:02:00.157Z,22.06
2023-04-22T17:04:29.862Z,22.06
2023-04-22T17:07:01.476Z,22.03
2023-04-22T17:09:33.112Z,21.78
2023-04-22T17:12:03.926Z,21.71
2023-04-22T17:14:33.350Z,21.77
2023-04-22T17:17:02.704Z,21.68
2023-04-22T17:19:32.116Z,21.51
2023-04-22T17:22:02.533Z,21.41
2023-04-22T17:24:33.351Z,21.40
2023-04-22T17:27:04.496Z,21.42
2023-04-22T17:29:33.692Z,21.29
2023-04-22T17:32:04.034Z,21.37
2023-04-22T17:34:33.540Z,21.20
2023-04-22T17:37:03.191Z,21.21
2023-04-22T17:39:36.801Z,21.07
2023-04-22T17:42:07.896Z,20.96
2023-04-22T17:44:39.324Z,20.83
2023-04-22T17:47:08.633Z,20.95
2023-04-22T17:49:39.133Z,20.97
2023-04-22T17:52:08.897Z,20.89
2023-04-22T17:54:43.559Z,20.53
2023-04-22T17:57:14.483Z,20.69
2023-04-22T17:59:43.632Z,20.71
2023-04-22T18:02:13.747Z,20.74
2023-04-22T18:04:43.110Z,20.64
2023-04-22T18:07:12.281Z,20.38
2023-04-22T18:09:41.835Z,20.35
2023-04-22T18:12:15.606Z,20.22
2023-04-22T18:14:45.032Z,20.23
2023-04-22T18:17:14.298Z,20.11
2023-04-22T18:20:02.837Z,20.17
2023-04-22T18:22:35.751Z,20.14
2023-04-22T18:25:05.148Z,20.13
2023-04-22T18:27:36.633Z,20.00
2023-04-22T18:30:07.135Z,20.00
2023-04-22T18:32:36.983Z,19.91
2023-04-22T18:35:07.447Z,19.95
2023-04-22T18:37:37.028Z,19.77
2023-04-22T18:40:08.196Z,19.84
2023-04-22T18:43:04.671Z,19.93
2023-04-22T18:45:34.221Z,19.86
2023-04-22T18:48:03.497Z,19.70
2023-04-22T18:50:33.530Z,19.51
2023-04-22T18:53:03.334Z,19.57
2023-04-22T18:55:36.681Z,19.72
2023-04-22T18:58:07.312Z,19.66
2023-04-22T19:00:39.043Z,19.66
2023-04-22T19:03:08.461Z,19.49
2023-04-22T19:05:39.140Z,19.56
2023-04-22T19:08:09.001Z,19.57
2023-04-22T19:10:38.452Z,19.38
2023-04-22T19:13:15.876Z,19.48
2023-04-22T19:16:04.687Z,19.38
2023-04-22T19:18:33.898Z,19.56
2023-04-22T19:21:03.980Z,19.45
2023-04-22T19:23:34.067Z,19.34
2023-04-22T19:26:04.368Z,19.45
2023-04-22T19:28:41.090Z,19.30
2023-04-22T19:31:13.311Z,19.25
2023-04-22T19:33:43.061Z,19.54
2023-04-22T19:36:17.706Z,19.52
2023-04-22T19:38:47.278Z,19.46
2023-04-22T19:41:18.706Z,19.42
2023-04-22T19:43:50.193Z,19.52
2023-04-22T19:46:19.536Z,19.47
2023-04-22T19:48:49.733Z,19.45
2023-04-22T19:51:20.576Z,19.37
2023-04-22T19:53:50.580Z,19.39
2023-04-22T19:56:20.318Z,19.38
2023-04-22T19:58:59.352Z,19.28
2023-04-22T20:01:29.192Z,19.39
2023-04-22T20:08:12.995Z,19.22
2023-04-22T20:11:34.038Z,19.38
2023-04-22T20:14:09.618Z,19.33
2023-04-22T20:16:40.149Z,19.16
2023-04-22T20:19:36.227Z,19.18
2023-04-22T20:22:12.483Z,19.01
2023-04-22T20:24:46.733Z,18.78
2023-04-22T20:27:17.732Z,18.71
2023-04-22T20:29:49.984Z,18.66
2023-04-22T20:32:19.495Z,18.41
2023-04-22T20:34:49.200Z,18.35
2023-04-22T20:37:20.992Z,18.37
2023-04-22T20:39:52.413Z,18.12
2023-04-22T20:42:23.221Z,18.10
2023-04-22T20:44:53.741Z,18.00
2023-04-22T20:47:23.534Z,17.96
2023-04-22T20:49:52.677Z,17.89
2023-04-22T20:52:22.315Z,17.76
2023-04-22T20:54:55.079Z,17.79
2023-04-22T20:57:24.581Z,17.71
2023-04-22T20:59:55.249Z,17.77
2023-04-22T21:02:28.407Z,17.70
2023-04-22T21:04:59.218Z,17.62
2023-04-22T21:07:31.708Z,17.55
2023-04-22T21:10:01.492Z,17.55
2023-04-22T21:12:32.183Z,17.51
2023-04-22T21:15:03.777Z,17.43
2023-04-22T21:17:36.289Z,17.43
2023-04-22T21:20:09.507Z,17.42
2023-04-22T21:22:43.612Z,17.34
2023-04-22T21:25:33.701Z,17.28
2023-04-22T21:28:03.920Z,17.09
2023-04-22T21:30:35.850Z,17.08
2023-04-22T21:33:05.608Z,17.03
2023-04-22T21:35:35.619Z,16.79
2023-04-22T21:38:05.339Z,16.83
2023-04-22T21:40:34.673Z,16.71
2023-04-22T21:43:04.536Z,16.60
2023-04-22T21:45:35.868Z,16.54
2023-04-22T21:48:05.775Z,16.41
2023-04-22T21:50:35.636Z,16.51
2023-04-22T21:53:05.019Z,16.34
2023-04-22T21:55:34.489Z,16.33
2023-04-22T21:58:03.869Z,16.31
2023-04-22T22:00:37.940Z,16.30
2023-04-22T22:03:09.119Z,16.18
2023-04-22T22:05:40.130Z,16.23
2023-04-22T22:08:12.002Z,16.22
2023-04-22T22:10:45.568Z,16.19
2023-04-22T22:13:17.093Z,16.20
2023-04-22T22:15:48.177Z,16.24
2023-04-22T22:18:18.903Z,16.23
2023-04-22T22:20:48.453Z,16.17
2023-04-22T22:23:18.761Z,16.17
2023-04-22T22:25:48.266Z,16.14
2023-04-22T22:28:19.162Z,15.96
2023-04-22T22:30:49.679Z,16.06
2023-04-22T22:33:18.913Z,16.00
2023-04-22T22:35:49.503Z,15.99
2023-04-22T22:38:18.702Z,15.97
2023-04-22T22:40:48.045Z,15.96
2023-04-22T22:43:17.509Z,15.90
2023-04-22T22:46:02.980Z,15.92
2023-04-22T22:48:32.829Z,15.79
2023-04-22T22:51:09.457Z,15.78
2023-04-22T22:53:38.700Z,15.59
2023-04-22T22:56:08.723Z,15.60
2023-04-22T22:58:38.671Z,15.62
2023-04-22T23:01:09.251Z,15.54
2023-04-22T23:03:38.866Z,15.57
2023-04-22T23:06:09.483Z,15.50
2023-04-22T23:08:38.603Z,15.46
2023-04-22T23:11:08.383Z,15.44
2023-04-22T23:13:37.492Z,15.42
2023-04-22T23:16:08.883Z,15.42
2023-04-22T23:18:40.311Z,15.29
2023-04-22T23:21:11.659Z,15.26
2023-04-22T23:23:42.502Z,15.17
2023-04-22T23:26:12.611Z,15.17
2023-04-22T23:28:50.927Z,15.22
2023-04-22T23:31:24.231Z,15.13
2023-04-22T23:33:56.564Z,15.18
2023-04-22T23:36:28.704Z,15.09
2023-04-22T23:38:58.134Z,15.11
2023-04-22T23:41:34.613Z,15.03
2023-04-22T23:44:04.069Z,14.79
2023-04-22T23:46:34.985Z,14.69
2023-04-22T23:49:13.788Z,14.67
2023-04-22T23:51:44.059Z,14.77
2023-04-22T23:54:13.336Z,14.76
2023-04-22T23:56:43.169Z,14.67
2023-04-22T23:59:14.413Z,14.77
